Time;durP1;ratioP1;P1;durP2;ratioP2;P2;SDS_P1;SDS_P2;PMS_P1;PMS_P2;Temp;Humidity;BMP_temperature;BMP_pressure;BME280_temperature;BME280_humidity;BME280_pressure;Samples;Min_cycle;Max_cycle;Signal;HPM_P1;HPM_P2
2023/08/20 00:00:19;;;;;;;14.80;6.60;;;23.60;1.00;;;;;;5069022;28;20392;-74
2023/08/20 00:02:49;;;;;;;15.00;7.10;;;23.40;1.00;;;;;;5064889;28;20465;-73
2023/08/20 00:05:15;;;;;;;15.00;7.15;;;23.50;1.00;;;;;;5068507;28;20799;-74
2023/08/20 00:07:41;;;;;;;12.07;6.60;;;23.50;1.00;;;;;;5067651;28;20380;-74
2023/08/20 00:10:07;;;;;;;12.88;7.03;;;23.50;1.00;;;;;;5068300;28;20411;-74
2023/08/20 00:12:33;;;;;;;12.60;6.10;;;23.50;1.00;;;;;;5068365;28;20408;-74
2023/08/20 00:15:06;;;;;;;12.73;6.85;;;23.50;1.00;;;;;;5068360;28;20892;-74
2023/08/20 00:17:33;;;;;;;12.90;6.80;;;23.50;1.00;;;;;;5068454;28;20415;-73
2023/08/20 00:19:59;;;;;;;12.80;6.60;;;23.40;1.00;;;;;;5068305;28;20392;-74
2023/08/20 00:22:26;;;;;;;12.37;6.40;;;23.40;1.00;;;;;;5067784;28;20396;-73
2023/08/20 00:24:53;;;;;;;14.77;6.78;;;23.30;1.00;;;;;;5066222;28;20407;-73
2023/08/20 00:27:19;;;;;;;13.52;6.45;;;23.30;1.00;;;;;;5067043;28;20414;-74
2023/08/20 00:29:46;;;;;;;15.23;7.20;;;23.30;1.00;;;;;;5067583;28;21271;-73
2023/08/20 00:32:12;;;;;;;14.27;6.65;;;23.30;1.00;;;;;;5063284;28;20407;-73
2023/08/20 00:34:37;;;;;;;11.70;6.32;;;23.30;1.00;;;;;;5066044;28;20388;-74
2023/08/20 00:37:03;;;;;;;13.52;6.70;;;23.30;1.00;;;;;;5066065;28;20431;-73
2023/08/20 00:39:29;;;;;;;13.00;6.60;;;23.30;1.00;;;;;;5067136;28;20437;-74
2023/08/20 00:41:55;;;;;;;11.55;6.93;;;23.20;1.00;;;;;;5065531;28;20922;-74
2023/08/20 00:44:21;;;;;;;12.95;6.25;;;23.30;1.00;;;;;;5067952;28;20410;-74
2023/08/20 00:46:47;;;;;;;12.03;6.60;;;23.30;1.00;;;;;;5067713;28;20403;-74
2023/08/20 00:49:13;;;;;;;11.88;6.63;;;23.20;1.00;;;;;;5067943;28;20384;-74
2023/08/20 00:51:39;;;;;;;12.60;6.22;;;23.30;1.00;;;;;;5067555;28;20421;-74
2023/08/20 00:54:05;;;;;;;14.60;7.50;;;23.40;1.00;;;;;;5067554;28;20430;-74
2023/08/20 00:56:30;;;;;;;10.43;5.78;;;23.50;1.00;;;;;;5067317;28;20412;-73
2023/08/20 00:58:57;;;;;;;12.40;6.68;;;23.50;1.00;;;;;;5068541;28;20410;-74
2023/08/20 01:01:22;;;;;;;14.20;7.15;;;23.30;1.00;;;;;;5068333;28;20399;-73
2023/08/20 01:03:48;;;;;;;15.63;7.13;;;23.20;1.00;;;;;;5067629;28;20902;-74
2023/08/20 01:06:42;;;;;;;13.32;7.68;;;23.30;1.00;;;;;;5067687;28;20436;-74
2023/08/20 01:09:34;;;;;;;14.27;7.15;;;23.30;1.00;;;;;;5050890;28;20403;-74
2023/08/20 01:12:03;;;;;;;16.58;7.03;;;23.40;1.00;;;;;;5065647;28;20469;-73
2023/08/20 01:14:28;;;;;;;14.18;7.40;;;23.20;1.00;;;;;;5068393;28;20422;-74
2023/08/20 01:16:54;;;;;;;17.00;8.00;;;23.10;1.00;;;;;;5070045;28;20876;-74
2023/08/20 01:19:21;;;;;;;14.13;7.30;;;23.10;1.00;;;;;;5068134;28;20876;-74
2023/08/20 01:22:08;;;;;;;13.30;7.50;;;23.10;1.00;;;;;;5067856;28;20968;-74
2023/08/20 01:24:33;;;;;;;13.60;7.30;;;23.10;1.00;;;;;;5067618;28;20395;-73
2023/08/20 01:27:26;;;;;;;13.47;7.27;;;23.10;1.00;;;;;;5066631;28;20501;-74
2023/08/20 01:29:53;;;;;;;13.73;7.05;;;23.10;1.00;;;;;;5067991;28;20451;-74
2023/08/20 01:32:19;;;;;;;13.40;6.78;;;23.00;1.00;;;;;;5067817;28;20895;-74
2023/08/20 01:34:45;;;;;;;14.90;7.50;;;23.00;1.00;;;;;;5067366;28;20392;-73
2023/08/20 01:37:11;;;;;;;15.35;7.18;;;23.10;1.00;;;;;;5066360;28;20498;-74
2023/08/20 01:39:37;;;;;;;12.57;7.17;;;23.10;1.00;;;;;;5062436;28;20511;-74
2023/08/20 01:42:03;;;;;;;12.70;6.50;;;23.10;1.00;;;;;;5064557;28;20410;-74
2023/08/20 01:44:29;;;;;;;14.20;7.38;;;23.10;1.00;;;;;;5068209;28;20745;-74
2023/08/20 01:46:54;;;;;;;13.17;7.00;;;23.00;1.00;;;;;;5068576;28;20394;-74
2023/08/20 01:49:20;;;;;;;12.70;7.47;;;23.00;1.00;;;;;;5066357;28;20477;-73
2023/08/20 01:51:45;;;;;;;15.37;7.53;;;23.00;1.00;;;;;;5071295;28;20419;-73
2023/08/20 01:54:11;;;;;;;11.90;6.90;;;22.90;1.20;;;;;;5065817;28;20407;-74
2023/08/20 01:56:36;;;;;;;14.30;8.03;;;22.90;12.50;;;;;;5067724;28;20734;-74
2023/08/20 01:59:02;;;;;;;13.93;8.13;;;22.90;18.20;;;;;;5067113;28;20771;-74
2023/08/20 02:01:27;;;;;;;15.90;8.43;;;22.80;25.50;;;;;;5067861;28;20396;-74
2023/08/20 02:03:53;;;;;;;13.57;7.57;;;22.70;33.80;;;;;;5064437;28;20431;-74
2023/08/20 02:06:19;;;;;;;15.63;8.27;;;22.70;40.00;;;;;;5060118;28;20399;-74
2023/08/20 02:08:44;;;;;;;15.83;7.73;;;22.70;60.40;;;;;;5071027;28;20891;-74
2023/08/20 02:11:10;;;;;;;14.80;7.70;;;22.70;52.40;;;;;;5070406;28;20441;-74
2023/08/20 02:13:35;;;;;;;16.10;7.53;;;22.70;48.60;;;;;;5071260;28;20383;-73
2023/08/20 02:16:02;;;;;;;13.70;7.00;;;22.70;53.00;;;;;;5071408;28;20387;-73
2023/08/20 02:18:28;;;;;;;17.92;8.48;;;22.80;31.70;;;;;;5071037;28;20390;-73
2023/08/20 02:20:54;;;;;;;14.25;7.07;;;22.70;22.60;;;;;;5071615;28;20423;-74
2023/08/20 02:23:19;;;;;;;12.17;6.63;;;22.60;31.00;;;;;;5069637;28;20411;-74
2023/08/20 02:25:46;;;;;;;12.47;7.07;;;22.50;52.20;;;;;;5071240;28;20388;-74
2023/08/20 02:28:12;;;;;;;13.43;7.13;;;22.50;71.80;;;;;;5071614;28;20420;-74
2023/08/20 02:30:45;;;;;;;14.30;7.40;;;22.50;73.00;;;;;;5070838;28;20828;-74
2023/08/20 02:33:11;;;;;;;15.40;7.28;;;22.60;43.10;;;;;;5070936;28;20395;-73
2023/08/20 02:35:40;;;;;;;15.75;8.80;;;22.60;33.00;;;;;;5071151;28;20392;-73
2023/08/20 02:38:06;;;;;;;14.40;7.33;;;22.50;49.70;;;;;;5070827;28;20469;-73
2023/08/20 02:40:31;;;;;;;13.13;7.60;;;22.40;67.00;;;;;;5070222;28;20907;-74
2023/08/20 02:42:57;;;;;;;15.18;8.32;;;22.40;79.20;;;;;;5072082;28;20475;-76
2023/08/20 02:45:23;;;;;;;14.40;7.73;;;22.40;84.40;;;;;;5071116;28;20396;-76
2023/08/20 02:47:49;;;;;;;14.27;8.33;;;22.40;99.90;;;;;;5070019;28;20387;-76
2023/08/20 02:50:14;;;;;;;14.27;7.97;;;22.40;97.50;;;;;;5069834;28;20430;-76
2023/08/20 02:52:42;;;;;;;15.35;8.45;;;22.40;99.90;;;;;;5069904;28;20903;-76
2023/08/20 02:55:08;;;;;;;16.35;8.50;;;22.40;91.80;;;;;;5070417;28;20391;-75
2023/08/20 02:57:33;;;;;;;16.75;8.40;;;22.40;94.00;;;;;;5069596;28;20775;-76
2023/08/20 02:59:59;;;;;;;16.70;7.80;;;22.40;85.00;;;;;;5068747;28;20388;-76
2023/08/20 03:02:24;;;;;;;16.30;9.02;;;22.30;99.90;;;;;;5070378;28;20388;-75
2023/08/20 03:04:50;;;;;;;17.90;8.70;;;22.30;99.90;;;;;;5069051;28;20970;-77
2023/08/20 03:07:15;;;;;;;17.20;9.02;;;22.40;94.90;;;;;;5060782;28;20403;-77
2023/08/20 03:09:41;;;;;;;15.02;8.40;;;22.40;93.40;;;;;;5069939;28;20392;-76
2023/08/20 03:12:07;;;;;;;16.58;9.00;;;22.40;47.60;;;;;;5067195;28;20401;-77
2023/08/20 03:14:32;;;;;;;14.85;8.50;;;22.30;50.50;;;;;;5072938;28;20383;-76
2023/08/20 03:16:58;;;;;;;15.03;7.30;;;22.20;78.90;;;;;;5072655;28;20435;-76
2023/08/20 03:19:23;;;;;;;14.30;6.93;;;22.30;59.70;;;;;;5072675;28;20419;-76
2023/08/20 03:21:49;;;;;;;15.95;7.75;;;22.30;37.60;;;;;;5073171;28;20487;-76
2023/08/20 03:24:14;;;;;;;16.50;8.20;;;22.30;28.90;;;;;;5073750;28;20460;-76
2023/08/20 03:26:40;;;;;;;15.38;8.50;;;22.20;28.40;;;;;;5073507;28;20395;-76
2023/08/20 03:29:05;;;;;;;14.60;8.27;;;22.20;37.50;;;;;;5071767;28;20395;-76
2023/08/20 03:31:31;;;;;;;18.60;8.93;;;22.10;52.60;;;;;;5069579;28;20753;-77
2023/08/20 03:33:57;;;;;;;14.73;8.48;;;22.20;72.90;;;;;;5066966;28;20709;-77
2023/08/20 03:36:22;;;;;;;15.43;7.70;;;22.30;55.20;;;;;;5070147;28;20403;-77
2023/08/20 03:38:48;;;;;;;18.83;8.90;;;22.30;47.00;;;;;;5069081;28;20755;-77
2023/08/20 03:41:13;;;;;;;16.70;9.20;;;22.40;43.40;;;;;;5069063;28;20396;-76
2023/08/20 03:43:39;;;;;;;15.67;8.37;;;22.40;34.20;;;;;;5069042;28;20462;-76
2023/08/20 03:46:04;;;;;;;18.13;8.73;;;22.30;18.30;;;;;;5068892;28;20474;-76
2023/08/20 03:48:30;;;;;;;16.03;8.43;;;22.20;23.60;;;;;;5069072;28;20384;-77
2023/08/20 03:50:56;;;;;;;14.10;7.87;;;22.10;25.40;;;;;;5069674;28;20495;-76
2023/08/20 03:53:22;;;;;;;15.63;8.35;;;22.00;68.60;;;;;;5069413;28;20456;-76
2023/08/20 03:55:48;;;;;;;16.00;7.88;;;22.00;99.90;;;;;;5068640;28;20426;-76
2023/08/20 03:58:14;;;;;;;18.17;8.77;;;22.00;87.50;;;;;;5068483;28;20387;-76
2023/08/20 04:00:39;;;;;;;15.80;8.60;;;22.00;98.10;;;;;;5065856;28;20971;-76
2023/08/20 04:03:05;;;;;;;15.38;8.52;;;22.10;99.90;;;;;;5067563;28;20401;-77
2023/08/20 04:05:36;;;;;;;14.73;7.57;;;22.10;98.60;;;;;;5068653;28;20376;-77
2023/08/20 04:08:02;;;;;;;17.83;8.60;;;22.20;73.20;;;;;;5066956;28;20419;-75
2023/08/20 04:10:27;;;;;;;15.67;8.37;;;22.20;43.60;;;;;;5068530;28;20447;-75
2023/08/20 04:12:53;;;;;;;15.80;8.20;;;22.10;54.20;;;;;;5068577;28;20442;-75
2023/08/20 04:15:18;;;;;;;16.27;8.50;;;22.00;96.00;;;;;;5068685;28;20480;-75
2023/08/20 04:17:44;;;;;;;16.33;9.27;;;22.00;99.90;;;;;;5068294;28;20396;-75
2023/08/20 04:20:10;;;;;;;18.63;9.23;;;22.10;96.20;;;;;;5068632;28;20442;-75
2023/08/20 04:22:37;;;;;;;17.52;9.32;;;22.10;75.60;;;;;;5068364;28;20402;-75
2023/08/20 04:25:02;;;;;;;16.13;8.10;;;22.20;79.90;;;;;;5068541;28;20745;-75
2023/08/20 04:27:28;;;;;;;14.90;7.97;;;22.20;48.50;;;;;;5068039;28;20394;-75
2023/08/20 04:29:53;;;;;;;16.53;8.70;;;22.20;16.00;;;;;;5068158;28;20404;-75
2023/08/20 04:32:19;;;;;;;13.20;7.80;;;22.20;21.50;;;;;;5067267;28;20380;-75
2023/08/20 04:34:46;;;;;;;14.00;7.43;;;22.20;25.90;;;;;;5061332;28;20455;-76
2023/08/20 04:37:12;;;;;;;14.98;7.70;;;22.00;53.80;;;;;;5068214;28;20428;-75
2023/08/20 04:39:38;;;;;;;14.20;8.25;;;22.00;53.20;;;;;;5067933;28;20402;-76
2023/08/20 04:42:03;;;;;;;13.15;7.30;;;22.00;45.30;;;;;;5067894;28;20820;-76
2023/08/20 04:44:29;;;;;;;14.77;7.28;;;22.00;59.30;;;;;;5068154;28;20380;-76
2023/08/20 04:46:54;;;;;;;15.57;7.70;;;21.90;92.10;;;;;;5068607;28;20384;-76
2023/08/20 04:49:20;;;;;;;20.85;7.50;;;21.90;99.90;;;;;;5068304;28;20405;-76
2023/08/20 04:51:45;;;;;;;17.45;8.75;;;22.00;99.90;;;;;;5067956;28;20439;-76
2023/08/20 04:54:11;;;;;;;13.52;8.07;;;22.10;74.00;;;;;;5068087;28;20435;-75
2023/08/20 04:56:36;;;;;;;15.77;8.18;;;22.10;59.30;;;;;;5061757;28;20919;-76
2023/08/20 04:59:02;;;;;;;15.38;8.18;;;22.10;74.20;;;;;;5067647;28;20880;-76
2023/08/20 05:01:27;;;;;;;16.48;8.70;;;22.10;69.50;;;;;;5064757;28;20570;-76
2023/08/20 05:03:53;;;;;;;14.20;7.82;;;22.20;62.90;;;;;;5068439;28;20491;-76
2023/08/20 05:06:18;;;;;;;15.98;8.90;;;22.20;93.50;;;;;;5067685;28;21033;-76
2023/08/20 05:08:44;;;;;;;17.05;9.18;;;22.30;99.90;;;;;;5067686;28;20424;-76
2023/08/20 05:11:09;;;;;;;15.17;8.10;;;22.60;90.00;;;;;;5067314;28;20421;-76
2023/08/20 05:13:35;;;;;;;15.30;8.80;;;22.80;37.60;;;;;;5067775;28;20880;-76
2023/08/20 05:16:00;;;;;;;15.40;8.20;;;23.00;10.70;;;;;;5067037;28;20764;-75
2023/08/20 05:18:26;;;;;;;16.27;8.77;;;23.00;1.00;;;;;;5067731;28;20748;-76
2023/08/20 05:20:52;;;;;;;15.98;8.35;;;23.00;1.00;;;;;;5067033;28;20407;-76
2023/08/20 05:23:17;;;;;;;13.55;8.20;;;23.20;1.00;;;;;;5067429;28;20461;-76
2023/08/20 05:25:43;;;;;;;14.85;8.43;;;23.30;1.00;;;;;;5066223;28;20404;-76
2023/08/20 05:28:08;;;;;;;15.52;8.65;;;23.40;1.00;;;;;;5067106;28;20460;-76
2023/08/20 05:30:34;;;;;;;15.65;8.10;;;23.30;1.00;;;;;;5066225;28;20499;-76
2023/08/20 05:33:00;;;;;;;18.00;9.43;;;23.40;1.00;;;;;;5066103;28;20399;-73
2023/08/20 05:35:25;;;;;;;18.48;9.65;;;23.70;1.00;;;;;;5067826;28;20395;-73
2023/08/20 05:37:51;;;;;;;16.95;8.90;;;23.90;1.00;;;;;;5077004;28;20420;-74
2023/08/20 05:40:16;;;;;;;16.40;9.23;;;24.10;1.00;;;;;;5069755;28;20415;-73
2023/08/20 05:42:42;;;;;;;17.00;10.07;;;24.10;1.00;;;;;;5068091;28;20399;-74
2023/08/20 05:45:07;;;;;;;17.43;9.23;;;24.20;1.00;;;;;;5071269;28;20449;-74
2023/08/20 05:47:33;;;;;;;13.00;7.90;;;24.50;1.00;;;;;;5070427;28;20407;-74
2023/08/20 05:49:58;;;;;;;15.65;8.88;;;24.90;1.00;;;;;;5065326;28;20403;-76
2023/08/20 05:52:24;;;;;;;15.25;8.60;;;25.80;99.90;;;;;;5070885;28;21573;-76
2023/08/20 05:54:49;;;;;;;13.77;7.80;;;27.00;1.00;;;;;;5070498;28;20486;-76
2023/08/20 05:57:16;;;;;;;13.63;7.73;;;28.10;1.00;;;;;;5070679;28;20491;-74
2023/08/20 05:59:41;;;;;;;14.93;7.40;;;29.10;46.90;;;;;;5068888;28;20431;-74
2023/08/20 06:02:07;;;;;;;16.20;7.60;;;29.90;99.90;;;;;;5070218;28;20439;-74
2023/08/20 06:04:32;;;;;;;15.13;7.73;;;30.70;99.90;;;;;;5064789;28;22433;-75
2023/08/20 06:06:58;;;;;;;15.37;7.50;;;30.90;1.00;;;;;;5064191;28;20459;-75
2023/08/20 06:09:24;;;;;;;13.85;6.53;;;31.30;1.00;;;;;;5065714;28;20378;-74
2023/08/20 06:11:49;;;;;;;12.30;6.53;;;31.30;1.00;;;;;;5070703;28;20928;-75
2023/08/20 06:14:16;;;;;;;13.10;7.37;;;31.10;1.00;;;;;;5066088;28;20395;-74
2023/08/20 06:16:41;;;;;;;12.32;6.90;;;30.90;1.00;;;;;;5055419;28;20483;-75
2023/08/20 06:19:07;;;;;;;12.37;6.70;;;31.10;1.00;;;;;;5065678;28;20754;-75
2023/08/20 06:21:33;;;;;;;14.73;7.25;;;30.90;1.00;;;;;;5061311;28;20465;-75
2023/08/20 06:23:58;;;;;;;13.50;7.33;;;30.40;1.00;;;;;;5061166;28;20386;-75
2023/08/20 06:26:24;;;;;;;15.10;7.80;;;30.80;1.00;;;;;;5051700;28;20381;-74
2023/08/20 06:28:49;;;;;;;16.63;8.40;;;31.40;1.00;;;;;;5050844;28;20404;-76
2023/08/20 06:31:15;;;;;;;13.13;7.50;;;31.80;1.00;;;;;;5067241;28;20450;-72
2023/08/20 06:33:40;;;;;;;15.50;7.67;;;32.10;1.00;;;;;;5061390;28;20776;-72
2023/08/20 06:36:06;;;;;;;14.52;7.40;;;32.10;1.00;;;;;;5060037;28;20457;-71
2023/08/20 06:38:33;;;;;;;13.05;7.78;;;31.90;1.00;;;;;;5061741;28;20431;-72
2023/08/20 06:40:58;;;;;;;12.73;8.15;;;32.00;1.00;;;;;;5068605;28;20860;-72
2023/08/20 06:43:24;;;;;;;13.07;7.60;;;31.80;1.00;;;;;;5067093;28;20487;-69
2023/08/20 06:45:49;;;;;;;20.33;16.40;;;31.80;1.00;;;;;;5070253;28;20395;-69
2023/08/20 06:48:16;;;;;;;15.40;8.10;;;31.40;1.00;;;;;;5069951;28;20407;-69
2023/08/20 06:50:41;;;;;;;15.15;8.55;;;30.90;1.00;;;;;;5060293;28;20531;-69
2023/08/20 06:53:07;;;;;;;17.27;8.10;;;30.80;1.00;;;;;;5066855;28;20399;-69
2023/08/20 06:55:32;;;;;;;16.42;8.40;;;31.60;1.00;;;;;;5057726;28;20402;-72
2023/08/20 06:57:58;;;;;;;14.50;7.97;;;32.20;47.80;;;;;;5062101;28;20508;-71
2023/08/20 07:00:23;;;;;;;13.93;7.60;;;32.70;1.00;;;;;;5068161;28;20400;-72
2023/08/20 07:02:49;;;;;;;15.10;8.50;;;32.10;1.00;;;;;;5060873;28;20411;-71
2023/08/20 07:05:14;;;;;;;11.97;7.23;;;31.90;1.00;;;;;;5066135;28;20404;-71
2023/08/20 07:07:40;;;;;;;16.90;8.67;;;32.30;1.00;;;;;;5062898;28;20437;-71
2023/08/20 07:10:06;;;;;;;14.70;8.07;;;33.40;18.50;;;;;;5056077;28;20437;-69
2023/08/20 07:12:32;;;;;;;13.02;7.40;;;;;;;;;;5057464;28;20837;-69
2023/08/20 07:14:58;;;;;;;14.15;7.60;;;;;;;;;;5053683;28;20475;-71
2023/08/20 07:17:24;;;;;;;12.45;7.22;;;;;;;;;;5060550;28;20408;-72
2023/08/20 07:19:50;;;;;;;14.18;8.38;;;;;;;;;;5051546;28;20773;-71
2023/08/20 07:22:16;;;;;;;18.00;8.50;;;;;;;;;;5052736;28;20410;-71
2023/08/20 07:24:42;;;;;;;14.70;7.80;;;;;;;;;;5055311;28;20385;-72
2023/08/20 07:27:12;;;;;;;17.15;8.55;;;;;;;;;;5059929;28;22599;-71
2023/08/20 07:29:37;;;;;;;14.70;8.50;;;34.30;99.90;;;;;;5060359;28;20401;-70
2023/08/20 07:32:03;;;;;;;14.85;8.10;;;35.20;99.90;;;;;;5058155;28;20413;-69
2023/08/20 07:34:30;;;;;;;12.98;8.02;;;35.20;99.90;;;;;;5056406;28;20392;-69
2023/08/20 07:36:56;;;;;;;14.98;7.53;;;34.40;99.90;;;;;;5056790;28;20524;-71
2023/08/20 07:39:22;;;;;;;12.38;7.50;;;33.80;99.90;;;;;;5055616;28;20409;-71
2023/08/20 07:41:47;;;;;;;15.55;8.02;;;33.30;99.90;;;;;;5056011;28;20407;-72
2023/08/20 07:44:13;;;;;;;16.43;9.07;;;34.10;99.90;;;;;;5055861;28;20420;-71
2023/08/20 07:46:39;;;;;;;14.00;8.37;;;34.20;99.90;;;;;;5048336;28;20412;-72
2023/08/20 07:49:04;;;;;;;15.35;7.95;;;33.50;99.90;;;;;;5056896;28;20734;-71
2023/08/20 07:51:30;;;;;;;14.48;8.20;;;33.00;99.90;;;;;;5054010;28;20576;-71
2023/08/20 07:53:58;;;;;;;13.77;7.40;;;32.40;99.90;;;;;;5058700;28;20405;-71
2023/08/20 07:56:23;;;;;;;13.93;7.95;;;33.00;99.90;;;;;;5055850;28;20408;-70
2023/08/20 07:58:49;;;;;;;13.20;6.70;;;34.60;99.90;;;;;;5065904;28;20876;-70
2023/08/20 08:01:14;;;;;;;12.20;7.10;;;35.70;99.90;;;;;;5059138;28;20746;-71
2023/08/20 08:03:40;;;;;;;13.73;8.00;;;36.40;99.90;;;;;;5065256;28;20463;-71
2023/08/20 08:06:05;;;;;;;12.83;7.97;;;37.10;99.90;;;;;;5054170;28;20941;-72
2023/08/20 08:08:31;;;;;;;11.60;7.00;;;37.40;99.90;;;;;;5060879;28;20416;-71
2023/08/20 08:10:56;;;;;;;12.40;7.27;;;37.60;99.90;;;;;;5062501;28;20894;-71
2023/08/20 08:13:23;;;;;;;16.92;8.30;;;37.90;99.90;;;;;;5052370;28;20436;-71
2023/08/20 08:15:50;;;;;;;13.20;7.40;;;37.30;99.90;;;;;;5051172;28;20823;-69
2023/08/20 08:18:16;;;;;;;12.70;8.10;;;36.40;99.90;;;;;;5055748;28;20405;-69
2023/08/20 08:20:41;;;;;;;14.63;7.95;;;35.90;99.90;;;;;;5060730;28;20418;-71
2023/08/20 08:23:07;;;;;;;13.70;7.40;;;35.40;99.90;;;;;;5048591;28;20401;-71
2023/08/20 08:25:32;;;;;;;11.17;6.73;;;35.70;99.90;;;;;;5055304;28;20461;-71
2023/08/20 08:27:58;;;;;;;14.20;8.30;;;36.30;99.90;;;;;;5051048;28;20455;-71
2023/08/20 08:30:24;;;;;;;15.47;8.23;;;36.60;99.90;;;;;;5059186;28;20512;-71
2023/08/20 08:32:49;;;;;;;14.50;8.60;;;37.60;99.90;;;;;;5050909;28;20419;-71
2023/08/20 08:35:16;;;;;;;13.38;7.80;;;37.60;99.90;;;;;;5062660;28;20413;-71
2023/08/20 08:37:41;;;;;;;12.60;7.55;;;37.80;99.90;;;;;;5072510;28;20476;-71
2023/08/20 08:40:08;;;;;;;17.90;8.27;;;38.20;99.90;;;;;;5073546;28;20963;-73
2023/08/20 08:42:34;;;;;;;12.20;7.70;;;39.60;99.90;;;;;;5057313;28;20439;-71
2023/08/20 08:45:00;;;;;;;13.25;8.55;;;39.90;99.90;;;;;;5064395;28;20452;-71
2023/08/20 08:47:26;;;;;;;12.88;8.10;;;39.50;99.90;;;;;;5063534;28;20431;-71
2023/08/20 08:49:56;;;;;;;14.85;7.65;;;38.80;99.90;;;;;;5062578;28;20404;-71
2023/08/20 08:52:22;;;;;;;12.10;7.00;;;38.30;99.90;;;;;;5060291;28;20413;-71
2023/08/20 08:54:48;;;;;;;13.52;7.57;;;38.20;99.90;;;;;;5068407;28;20407;-71
2023/08/20 08:57:15;;;;;;;19.43;7.70;;;38.60;99.90;;;;;;5053207;28;20405;-71
2023/08/20 08:59:41;;;;;;;12.57;7.70;;;38.40;99.90;;;;;;5056778;28;20413;-71
2023/08/20 09:02:09;;;;;;;16.98;7.82;;;38.50;99.90;;;;;;5059499;28;20910;-71
2023/08/20 09:04:41;;;;;;;13.20;7.82;;;38.70;99.90;;;;;;5059387;28;20488;-71
2023/08/20 09:07:12;;;;;;;11.40;7.43;;;38.60;99.90;;;;;;5051090;28;20412;-71
2023/08/20 09:09:42;;;;;;;12.67;6.77;;;38.70;99.90;;;;;;5055563;28;20731;-71
2023/08/20 09:12:18;;;;;;;12.43;6.90;;;39.90;99.90;;;;;;5061326;28;20437;-71
2023/08/20 09:14:49;;;;;;;11.40;7.07;;;40.10;99.90;;;;;;5056136;28;20444;-71
2023/08/20 09:17:15;;;;;;;11.63;7.13;;;40.30;99.90;;;;;;5051123;28;20482;-71
2023/08/20 09:19:44;;;;;;;13.45;7.68;;;40.60;99.90;;;;;;5050022;28;20897;-71
2023/08/20 09:22:15;;;;;;;12.55;6.80;;;41.00;99.90;;;;;;5057513;28;20394;-71
2023/08/20 09:24:52;;;;;;;12.52;7.38;;;41.00;99.90;;;;;;5055788;28;20413;-71
2023/08/20 09:27:17;;;;;;;13.27;7.90;;;41.00;99.90;;;;;;5055316;28;20427;-71
2023/08/20 09:29:48;;;;;;;10.87;7.27;;;41.10;99.90;;;;;;5058338;28;20400;-71
2023/08/20 09:32:19;;;;;;;11.90;7.70;;;41.30;99.90;;;;;;5050575;28;20408;-72
2023/08/20 09:34:45;;;;;;;14.27;8.20;;;41.50;99.90;;;;;;5061299;28;20871;-70
2023/08/20 09:37:12;;;;;;;15.00;7.60;;;42.30;99.90;;;;;;5057310;28;20413;-70
2023/08/20 09:39:38;;;;;;;12.10;7.40;;;41.90;99.90;;;;;;5061654;28;20483;-70
2023/08/20 09:42:05;;;;;;;13.93;7.75;;;41.70;99.90;;;;;;5058931;28;20535;-70
2023/08/20 09:44:35;;;;;;;13.57;7.63;;;41.80;99.90;;;;;;5061815;28;20435;-70
2023/08/20 09:47:02;;;;;;;11.55;8.25;;;41.60;99.90;;;;;;5067501;28;20775;-70
2023/08/20 09:49:33;;;;;;;13.10;7.80;;;40.90;99.90;;;;;;5067505;28;20407;-70
2023/08/20 09:52:00;;;;;;;13.18;7.35;;;40.60;99.90;;;;;;5066279;28;20807;-70
2023/08/20 09:54:37;;;;;;;13.60;7.00;;;40.90;99.90;;;;;;5066721;28;20380;-70
2023/08/20 09:57:11;;;;;;;13.50;7.47;;;40.70;99.90;;;;;;5066460;28;20423;-70
2023/08/20 09:59:38;;;;;;;14.17;6.73;;;40.30;99.90;;;;;;5052371;28;20416;-70
2023/08/20 10:02:04;;;;;;;10.77;6.63;;;40.40;99.90;;;;;;5063032;28;20411;-70
2023/08/20 10:04:30;;;;;;;11.70;6.93;;;41.00;99.90;;;;;;5065455;28;20407;-70
2023/08/20 10:06:58;;;;;;;12.75;7.25;;;41.90;99.90;;;;;;5067716;28;20432;-70
2023/08/20 10:09:24;;;;;;;11.55;7.63;;;42.40;99.90;;;;;;5067348;28;20398;-70
2023/08/20 10:11:50;;;;;;;12.55;7.40;;;43.00;99.90;;;;;;5067269;28;20416;-70
2023/08/20 10:14:16;;;;;;;16.40;7.60;;;42.70;99.90;;;;;;5052510;28;20419;-70
2023/08/20 10:16:42;;;;;;;13.60;8.80;;;42.00;99.90;;;;;;5067279;28;20538;-70
2023/08/20 10:19:07;;;;;;;11.70;7.65;;;41.00;99.90;;;;;;5065409;28;20400;-72
2023/08/20 10:21:33;;;;;;;12.83;7.30;;;39.90;99.90;;;;;;5060403;28;20488;-72
2023/08/20 10:24:06;;;;;;;12.00;6.60;;;40.00;99.90;;;;;;5067044;28;20410;-70
2023/08/20 10:26:34;;;;;;;10.98;5.70;;;41.00;99.90;;;;;;5067444;28;20387;-71
2023/08/20 10:29:34;;;;;;;12.18;6.78;;;41.70;99.90;;;;;;5069160;28;20410;-70
2023/08/20 10:32:00;;;;;;;12.10;6.70;;;41.70;99.90;;;;;;5064236;28;20506;-70
2023/08/20 10:34:35;;;;;;;9.13;5.57;;;41.00;99.90;;;;;;5071368;28;20533;-70
2023/08/20 10:37:03;;;;;;;11.55;6.00;;;40.80;99.90;;;;;;5071116;28;20453;-70
2023/08/20 10:39:29;;;;;;;15.35;6.55;;;40.80;99.90;;;;;;5062329;28;20450;-73
2023/08/20 10:42:14;;;;;;;10.93;6.00;;;40.20;99.90;;;;;;5067969;28;20878;-72
2023/08/20 10:45:08;;;;;;;11.07;6.30;;;40.00;99.90;;;;;;5036621;28;20413;-72
2023/08/20 10:47:41;;;;;;;10.90;6.38;;;39.70;99.90;;;;;;5063536;28;21017;-73
2023/08/20 10:50:10;;;;;;;11.45;6.40;;;38.90;99.90;;;;;;5065682;28;20432;-72
2023/08/20 10:52:40;;;;;;;10.82;6.35;;;38.50;99.90;;;;;;5067624;28;20454;-69
2023/08/20 10:55:08;;;;;;;10.40;5.93;;;38.00;99.90;;;;;;5063414;28;20503;-69
2023/08/20 10:57:35;;;;;;;11.85;6.78;;;37.60;99.90;;;;;;5066739;28;20522;-70
2023/08/20 11:00:11;;;;;;;11.05;6.13;;;37.00;1.00;;;;;;5065889;28;20399;-70
2023/08/20 11:02:41;;;;;;;11.57;6.05;;;36.90;1.00;;;;;;5059861;28;20399;-70
2023/08/20 11:05:23;;;;;;;14.93;7.30;;;37.10;1.00;;;;;;5065077;28;20376;-70
2023/08/20 11:07:49;;;;;;;10.90;6.80;;;36.80;1.00;;;;;;5061348;28;20388;-70
2023/08/20 11:10:16;;;;;;;12.57;6.50;;;36.70;1.00;;;;;;5059352;28;20442;-70
2023/08/20 11:12:48;;;;;;;10.88;5.97;;;36.80;1.00;;;;;;5057736;28;20397;-70
2023/08/20 11:15:13;;;;;;;12.57;5.88;;;36.90;1.00;;;;;;5058071;28;20409;-70
2023/08/20 11:17:44;;;;;;;12.75;5.72;;;36.90;1.00;;;;;;5057743;28;20425;-70
2023/08/20 11:20:11;;;;;;;11.90;6.40;;;37.00;1.00;;;;;;5063299;28;20956;-70
2023/08/20 11:22:39;;;;;;;12.73;6.82;;;36.90;1.00;;;;;;5064396;28;20444;-70
2023/08/20 11:25:05;;;;;;;12.83;6.83;;;36.90;1.00;;;;;;5061003;28;20417;-70
2023/08/20 11:27:30;;;;;;;13.77;6.80;;;36.80;1.00;;;;;;5059050;28;20410;-70
2023/08/20 11:29:58;;;;;;;13.18;6.95;;;36.60;1.00;;;;;;5059401;28;20390;-70
2023/08/20 11:32:24;;;;;;;13.57;6.40;;;36.10;1.00;;;;;;5066876;28;20418;-71
2023/08/20 11:34:49;;;;;;;11.47;5.80;;;35.70;99.90;;;;;;5056450;28;20422;-71
2023/08/20 11:37:20;;;;;;;13.67;5.80;;;35.80;99.90;;;;;;5057144;28;20409;-71
2023/08/20 11:39:48;;;;;;;10.82;6.22;;;36.10;99.90;;;;;;5063778;28;20400;-71
2023/08/20 11:42:14;;;;;;;11.00;6.00;;;36.20;99.90;;;;;;5059584;28;20458;-71
2023/08/20 11:44:45;;;;;;;11.93;6.38;;;36.10;99.90;;;;;;5059248;28;20419;-71
2023/08/20 11:47:17;;;;;;;12.80;5.90;;;36.20;99.90;;;;;;5059944;28;20401;-71
2023/08/20 11:49:43;;;;;;;14.57;9.30;;;36.00;99.90;;;;;;5070253;28;20401;-71
2023/08/20 11:52:09;;;;;;;13.33;6.70;;;35.80;99.90;;;;;;5059655;28;20419;-71
2023/08/20 11:54:36;;;;;;;11.30;6.38;;;35.50;99.90;;;;;;5069345;28;20485;-71
2023/08/20 11:57:03;;;;;;;17.25;8.55;;;35.40;99.90;;;;;;5064347;28;20443;-71
2023/08/20 11:59:29;;;;;;;17.40;10.18;;;35.60;99.90;;;;;;5060259;28;20396;-71
2023/08/20 12:02:05;;;;;;;12.83;6.97;;;36.20;99.90;;;;;;5059255;28;20411;-71
2023/08/20 12:04:31;;;;;;;12.77;6.97;;;36.20;99.90;;;;;;5065141;28;20394;-71
2023/08/20 12:07:09;;;;;;;11.30;6.63;;;36.20;99.90;;;;;;5062036;28;20842;-71
2023/08/20 12:09:35;;;;;;;11.77;6.67;;;35.80;99.90;;;;;;5067082;28;20410;-71
2023/08/20 12:12:02;;;;;;;11.47;6.83;;;35.70;99.90;;;;;;5066801;28;20413;-71
2023/08/20 12:14:27;;;;;;;12.85;7.18;;;35.30;99.90;;;;;;5062335;28;20380;-71
2023/08/20 12:16:54;;;;;;;13.43;7.70;;;35.40;99.90;;;;;;5054595;28;20440;-71
2023/08/20 12:19:20;;;;;;;15.10;7.10;;;35.60;99.90;;;;;;5058114;28;20482;-71
2023/08/20 12:21:46;;;;;;;12.23;6.15;;;35.70;99.90;;;;;;5062472;28;20486;-71
2023/08/20 12:24:12;;;;;;;10.90;6.33;;;35.90;99.90;;;;;;5065422;28;20418;-71
2023/08/20 12:26:38;;;;;;;12.07;6.03;;;35.90;99.90;;;;;;5068889;28;20462;-71
2023/08/20 12:29:04;;;;;;;11.45;6.18;;;36.00;99.90;;;;;;5068548;28;20475;-71
2023/08/20 12:31:29;;;;;;;13.10;6.30;;;36.20;99.90;;;;;;5067945;28;20522;-71
2023/08/20 12:33:55;;;;;;;13.37;7.10;;;36.30;99.90;;;;;;5068800;28;20404;-71
2023/08/20 12:36:20;;;;;;;11.47;6.07;;;36.40;99.90;;;;;;5069215;28;20439;-72
2023/08/20 12:38:46;;;;;;;11.77;6.05;;;36.30;99.90;;;;;;5068483;28;20901;-71
2023/08/20 12:41:12;;;;;;;12.60;6.20;;;35.80;99.90;;;;;;5059185;28;20401;-71